Time;durP1;ratioP1;P1;durP2;ratioP2;P2;SDS_P1;SDS_P2;PMS_P1;PMS_P2;Temp;Humidity;BMP_temperature;BMP_pressure;BME280_temperature;BME280_humidity;BME280_pressure;Samples;Min_cycle;Max_cycle;Signal;HPM_P1;HPM_P2
2022/08/01 00:00:18;;;;;;;1.45;0.90;;;;;;;19.59;100.00;98173.81;15279798;19;20029;-77
2022/08/01 00:05:26;;;;;;;3.42;1.00;;;;;;;19.54;100.00;98170.94;15285081;19;20027;-78
2022/08/01 00:10:31;;;;;;;2.15;0.90;;;;;;;19.51;100.00;98182.31;15276899;19;20022;-77
2022/08/01 00:15:40;;;;;;;1.65;1.00;;;;;;;19.47;100.00;98186.53;15279108;19;20018;-76
2022/08/01 00:21:00;;;;;;;2.53;0.88;;;;;;;19.41;100.00;98177.34;15276767;19;20007;-75
2022/08/01 00:26:05;;;;;;;3.28;1.10;;;;;;;19.33;100.00;98181.22;15283336;19;20018;-77
2022/08/01 00:31:10;;;;;;;1.80;0.95;;;;;;;19.28;100.00;98182.97;15277732;19;20028;-76
2022/08/01 00:36:18;;;;;;;1.48;1.00;;;;;;;19.20;100.00;98181.34;15279817;19;20023;-75
2022/08/01 00:41:22;;;;;;;1.52;0.93;;;;;;;19.14;100.00;98179.50;15275767;19;20032;-76
2022/08/01 00:46:27;;;;;;;2.40;1.23;;;;;;;19.09;100.00;98183.75;15270920;19;20092;-76
2022/08/01 00:51:35;;;;;;;1.60;1.10;;;;;;;19.07;100.00;98174.94;15271531;19;20027;-76
2022/08/01 00:56:40;;;;;;;1.75;1.25;;;;;;;19.06;100.00;98176.00;15276826;19;20015;-76
2022/08/01 01:01:45;;;;;;;2.00;0.90;;;;;;;19.04;100.00;98172.63;15275538;19;20018;-76
2022/08/01 01:07:07;;;;;;;1.33;1.00;;;;;;;19.00;100.00;98165.13;15277195;19;20098;-76
2022/08/01 01:12:22;;;;;;;2.85;0.82;;;;;;;18.95;100.00;98165.78;15272149;19;20006;-76
2022/08/01 01:17:38;;;;;;;2.53;1.02;;;;;;;18.91;100.00;98167.25;15268880;19;20030;-77
2022/08/01 01:23:12;;;;;;;1.80;1.13;;;;;;;18.86;100.00;98164.38;15276636;19;20014;-76
2022/08/01 01:28:26;;;;;;;1.27;0.90;;;;;;;18.84;100.00;98163.75;15273797;19;20027;-77
2022/08/01 01:33:35;;;;;;;1.00;0.90;;;;;;;18.86;100.00;98167.09;15287092;19;20101;-77
2022/08/01 01:38:53;;;;;;;0.80;0.80;;;;;;;18.85;100.00;98163.50;15286979;19;20010;-75
2022/08/01 01:44:00;;;;;;;3.40;1.02;;;;;;;18.87;100.00;98171.50;15288516;19;20130;-75
2022/08/01 01:49:09;;;;;;;3.95;1.00;;;;;;;18.85;100.00;98168.16;15282675;19;20010;-76
2022/08/01 01:54:15;;;;;;;1.10;1.00;;;;;;;18.86;100.00;98164.38;15294551;19;20010;-77
2022/08/01 01:59:22;;;;;;;3.42;0.80;;;;;;;18.87;100.00;98160.56;15286406;19;20031;-76
2022/08/01 02:04:33;;;;;;;1.13;0.90;;;;;;;18.83;100.00;98159.34;15291436;19;20015;-77
2022/08/01 02:09:40;;;;;;;1.48;0.80;;;;;;;18.82;100.00;98163.94;15282783;19;20408;-77
2022/08/01 02:14:47;;;;;;;2.83;0.95;;;;;;;18.79;100.00;98164.41;15289094;19;20031;-77
2022/08/01 02:19:56;;;;;;;1.25;0.90;;;;;;;18.75;100.00;98169.47;15279955;19;20036;-78
2022/08/01 02:25:05;;;;;;;1.83;1.00;;;;;;;18.63;100.00;98173.97;15292218;19;20006;-77
2022/08/01 02:30:14;;;;;;;1.52;0.90;;;;;;;18.60;100.00;98177.13;15286168;19;20019;-77
2022/08/01 02:35:50;;;;;;;2.08;0.93;;;;;;;18.58;100.00;98177.31;15298627;19;20034;-77
2022/08/01 02:41:23;;;;;;;1.73;0.73;;;;;;;18.58;100.00;98184.69;15365343;19;20018;-77
2022/08/01 02:46:36;;;;;;;0.85;0.70;;;;;;;18.57;100.00;98191.19;15297630;19;20040;-77
2022/08/01 02:51:42;;;;;;;0.70;0.60;;;;;;;18.56;100.00;98193.09;15275387;19;20063;-77
2022/08/01 02:56:52;;;;;;;1.00;0.80;;;;;;;18.59;100.00;98191.81;15282372;19;20122;-76
2022/08/01 03:01:59;;;;;;;1.27;0.60;;;;;;;18.55;100.00;98202.34;15285564;19;20014;-77
2022/08/01 03:07:10;;;;;;;1.88;0.75;;;;;;;18.54;100.00;98200.66;15284046;19;20014;-76
2022/08/01 03:12:20;;;;;;;0.93;0.50;;;;;;;18.55;100.00;98207.78;15284206;19;20010;-78
2022/08/01 03:17:28;;;;;;;1.70;0.65;;;;;;;18.56;100.00;98211.34;15291528;19;20018;-77
2022/08/01 03:22:35;;;;;;;0.75;0.60;;;;;;;18.53;100.00;98217.22;15285018;19;20369;-77
2022/08/01 03:27:45;;;;;;;0.60;0.60;;;;;;;18.46;100.00;98220.84;15281241;19;20026;-77
2022/08/01 03:32:50;;;;;;;2.38;0.65;;;;;;;18.37;100.00;98230.34;15283212;19;20366;-77
2022/08/01 03:37:58;;;;;;;0.55;0.47;;;;;;;18.36;100.00;98236.00;15277938;19;20735;-77
2022/08/01 03:43:29;;;;;;;0.95;0.43;;;;;;;18.36;100.00;98231.38;15282875;19;20439;-77
2022/08/01 03:48:38;;;;;;;0.40;0.40;;;;;;;18.40;100.00;98243.53;15278652;19;20455;-77
2022/08/01 03:53:44;;;;;;;1.77;0.40;;;;;;;18.46;100.00;98239.94;15279756;19;20031;-77
2022/08/01 03:58:53;;;;;;;0.47;0.47;;;;;;;18.52;100.00;98240.13;15295521;19;20108;-78
2022/08/01 04:04:01;;;;;;;0.52;0.52;;;;;;;18.56;100.00;98246.81;15354006;19;20054;-77
2022/08/01 04:09:06;;;;;;;0.60;0.60;;;;;;;18.56;100.00;98235.91;15298504;19;20014;-78
2022/08/01 04:14:19;;;;;;;1.08;0.60;;;;;;;18.59;100.00;98240.94;15290889;19;20038;-78
2022/08/01 04:19:25;;;;;;;0.77;0.60;;;;;;;18.66;100.00;98251.81;15282953;19;20035;-78
2022/08/01 04:24:32;;;;;;;0.50;0.50;;;;;;;18.71;100.00;98255.56;15285654;19;20153;-78
2022/08/01 04:29:41;;;;;;;0.75;0.50;;;;;;;18.75;100.00;98251.34;15277042;19;20067;-77
2022/08/01 04:34:49;;;;;;;1.48;0.63;;;;;;;18.78;100.00;98256.34;15279832;19;20612;-76
2022/08/01 04:39:55;;;;;;;0.60;0.50;;;;;;;18.83;100.00;98268.50;15275804;19;20163;-75
2022/08/01 04:45:04;;;;;;;1.42;0.60;;;;;;;18.85;100.00;98267.22;15285578;19;20014;-78
2022/08/01 04:50:11;;;;;;;0.50;0.50;;;;;;;18.91;100.00;98273.69;15281285;19;20015;-78
2022/08/01 04:55:16;;;;;;;2.10;0.50;;;;;;;18.94;100.00;98259.66;15284942;19;20027;-77
2022/08/01 05:00:24;;;;;;;0.50;0.50;;;;;;;19.03;100.00;98268.44;15277980;19;20450;-78
2022/08/01 05:05:30;;;;;;;0.88;0.70;;;;;;;19.09;100.00;98271.13;15279207;19;20035;-77
2022/08/01 05:10:35;;;;;;;1.23;0.55;;;;;;;19.17;100.00;98274.63;15295238;19;20098;-78
2022/08/01 05:15:42;;;;;;;1.42;0.60;;;;;;;19.22;100.00;98272.09;15307328;19;20039;-78
2022/08/01 05:20:47;;;;;;;0.60;0.60;;;;;;;19.25;100.00;98285.28;15298364;19;20094;-77
2022/08/01 05:25:52;;;;;;;0.68;0.60;;;;;;;19.31;100.00;98287.13;15303635;19;20492;-77
2022/08/01 05:31:04;;;;;;;0.95;0.60;;;;;;;19.32;100.00;98272.41;15293865;19;20086;-77
2022/08/01 05:36:09;;;;;;;0.80;0.70;;;;;;;19.36;100.00;98279.09;15296408;19;20514;-77
2022/08/01 05:41:15;;;;;;;0.70;0.70;;;;;;;19.35;100.00;98274.69;15305188;19;20011;-77
2022/08/01 05:46:23;;;;;;;1.33;0.70;;;;;;;19.38;100.00;98274.25;15304389;19;20018;-77
2022/08/01 05:51:31;;;;;;;1.00;0.70;;;;;;;19.45;100.00;98276.94;15298543;19;20006;-76
2022/08/01 05:56:37;;;;;;;1.75;0.65;;;;;;;19.48;100.00;98286.56;15304604;19;20018;-80
2022/08/01 06:01:46;;;;;;;1.42;0.63;;;;;;;19.53;100.00;98278.56;15300877;19;20015;-78
2022/08/01 06:06:54;;;;;;;1.20;0.55;;;;;;;19.58;100.00;98284.16;15297315;19;20016;-82
2022/08/01 06:11:59;;;;;;;1.17;0.60;;;;;;;19.56;100.00;98289.88;15302138;19;20011;-79
2022/08/01 06:17:07;;;;;;;0.77;0.60;;;;;;;19.53;100.00;98294.94;15306077;19;20015;-80
2022/08/01 06:22:12;;;;;;;1.60;0.68;;;;;;;19.53;100.00;98290.31;15304224;19;20014;-79
2022/08/01 06:27:38;;;;;;;1.27;0.68;;;;;;;19.56;100.00;98294.50;15306053;19;20362;-80
2022/08/01 06:32:55;;;;;;;1.10;0.70;;;;;;;19.59;100.00;98298.69;15352631;19;20010;-80
2022/08/01 06:38:00;;;;;;;0.73;0.60;;;;;;;19.49;100.00;98316.41;15302169;19;20002;-80
2022/08/01 06:43:05;;;;;;;1.38;0.60;;;;;;;19.28;100.00;98319.53;15298309;19;20015;-80
2022/08/01 06:48:13;;;;;;;0.73;0.50;;;;;;;19.20;100.00;98328.81;15293220;19;20045;-80
2022/08/01 06:53:18;;;;;;;1.85;1.00;;;;;;;19.14;100.00;98335.13;15298183;19;20030;-77
2022/08/01 06:58:23;;;;;;;1.92;0.88;;;;;;;18.80;100.00;98376.22;15300671;19;20485;-79
2022/08/01 07:03:38;;;;;;;1.90;0.70;;;;;;;18.48;100.00;98381.56;15305859;19;20479;-80
2022/08/01 07:08:58;;;;;;;1.88;0.50;;;;;;;18.30;100.00;98376.78;15304136;19;20007;-80
2022/08/01 07:14:12;;;;;;;0.75;0.40;;;;;;;18.23;100.00;98378.69;15298304;19;20810;-81
2022/08/01 07:19:20;;;;;;;1.35;0.40;;;;;;;18.14;100.00;98387.09;15300623;19;20720;-80
2022/08/01 07:24:31;;;;;;;0.40;0.40;;;;;;;18.08;100.00;98384.38;15300066;19;20015;-81
2022/08/01 07:29:39;;;;;;;0.38;0.38;;;;;;;18.14;100.00;98395.28;15293830;19;20007;-81
2022/08/01 07:34:47;;;;;;;0.73;0.40;;;;;;;18.35;100.00;98387.03;15297822;19;20010;-80
2022/08/01 07:39:51;;;;;;;0.85;0.40;;;;;;;18.56;100.00;98372.31;15288889;19;20006;-78
2022/08/01 07:44:56;;;;;;;0.65;0.50;;;;;;;18.69;100.00;98366.00;15291338;19;20475;-79
2022/08/01 07:50:12;;;;;;;0.68;0.50;;;;;;;18.78;100.00;98378.34;15287514;19;20018;-79
2022/08/01 07:55:17;;;;;;;0.95;0.50;;;;;;;19.02;100.00;98375.97;15292214;19;20002;-79
2022/08/01 08:00:24;;;;;;;0.52;0.35;;;;;;;19.33;100.00;98353.31;15291913;19;20464;-80
2022/08/01 08:05:32;;;;;;;0.32;0.30;;;;;;;19.55;100.00;98342.03;15293307;19;20010;-75
2022/08/01 08:10:57;;;;;;;0.45;0.40;;;;;;;19.83;100.00;98355.25;15280600;19;20010;-77
2022/08/01 08:16:02;;;;;;;0.90;0.40;;;;;;;19.97;100.00;98344.22;15285243;19;20015;-77
2022/08/01 08:21:10;;;;;;;0.45;0.40;;;;;;;20.01;100.00;98339.97;15286837;19;20088;-78
2022/08/01 08:26:15;;;;;;;0.75;0.40;;;;;;;19.97;100.00;98336.84;15291069;19;20011;-77
2022/08/01 08:31:20;;;;;;;2.10;0.30;;;;;;;20.08;100.00;98339.91;15285487;19;20014;-77
2022/08/01 08:36:48;;;;;;;0.55;0.30;;;;;;;20.27;100.00;98336.16;15286198;19;20021;-76
2022/08/01 08:41:53;;;;;;;1.35;0.38;;;;;;;20.37;100.00;98345.72;15290791;19;20074;-76
2022/08/01 08:47:04;;;;;;;0.30;0.30;;;;;;;20.56;100.00;98330.16;15290024;19;20018;-76
2022/08/01 08:52:17;;;;;;;0.50;0.30;;;;;;;20.97;100.00;98327.78;15297648;19;20062;-77
2022/08/01 08:57:23;;;;;;;2.72;0.30;;;;;;;21.43;100.00;98323.53;15304321;19;20021;-77
2022/08/01 09:02:28;;;;;;;0.38;0.30;;;;;;;21.74;100.00;98329.81;15304898;19;20074;-76
2022/08/01 09:07:35;;;;;;;1.55;0.47;;;;;;;21.80;100.00;98328.03;15302906;19;20014;-77
2022/08/01 09:12:41;;;;;;;1.88;0.20;;;;;;;21.86;100.00;98338.88;15301149;19;20483;-77
2022/08/01 09:17:46;;;;;;;0.20;0.20;;;;;;;21.97;100.00;98330.91;15300226;19;20043;-77
2022/08/01 09:22:54;;;;;;;0.45;0.17;;;;;;;21.91;100.00;98337.34;15294435;19;20039;-77
2022/08/01 09:28:06;;;;;;;0.45;0.13;;;;;;;21.85;100.00;98330.91;15302517;19;20019;-76
2022/08/01 09:33:11;;;;;;;0.45;0.20;;;;;;;22.23;100.00;98328.75;15300350;19;20073;-77
2022/08/01 09:38:29;;;;;;;0.20;0.20;;;;;;;22.35;100.00;98329.59;15300757;19;20011;-77
2022/08/01 09:43:34;;;;;;;0.40;0.20;;;;;;;22.50;100.00;98329.09;15312612;19;20025;-78
2022/08/01 09:48:41;;;;;;;0.80;0.20;;;;;;;22.58;100.00;98327.91;15346841;19;20025;-77
2022/08/01 09:53:55;;;;;;;0.13;0.10;;;;;;;22.51;100.00;98329.97;15312108;19;20024;-78
2022/08/01 09:59:01;;;;;;;0.80;0.10;;;;;;;22.65;100.00;98334.09;15304745;19;20023;-77
2022/08/01 10:04:12;;;;;;;3.03;0.10;;;;;;;22.65;100.00;98322.28;15310775;19;20010;-77
2022/08/01 10:09:31;;;;;;;0.55;0.10;;;;;;;22.58;100.00;98338.88;15301911;19;20010;-77
2022/08/01 10:14:45;;;;;;;0.30;0.10;;;;;;;22.65;100.00;98325.84;15304318;19;20031;-76
2022/08/01 10:19:57;;;;;;;0.10;0.10;;;;;;;22.72;100.00;98329.31;15296205;19;20785;-76
2022/08/01 10:25:07;;;;;;;0.10;0.10;;;;;;;22.81;100.00;98331.66;15318513;19;20037;-77
2022/08/01 10:30:13;;;;;;;0.10;0.10;;;;;;;22.89;100.00;98334.88;15363420;19;19999;-77
2022/08/01 10:35:27;;;;;;;0.25;0.10;;;;;;;22.92;100.00;98345.38;15297258;19;20010;-77
2022/08/01 10:40:54;;;;;;;0.32;0.10;;;;;;;23.05;100.00;98338.75;15289178;19;20030;-77
2022/08/01 10:46:00;;;;;;;0.10;0.10;;;;;;;22.99;100.00;98347.94;15296458;19;20485;-77
2022/08/01 10:51:07;;;;;;;0.68;0.10;;;;;;;23.00;100.00;98344.13;15290159;19;20032;-76
2022/08/01 10:56:25;;;;;;;0.17;0.10;;;;;;;22.99;100.00;98350.69;15284086;19;20010;-77
2022/08/01 11:01:34;;;;;;;0.10;0.10;;;;;;;23.24;100.00;98344.06;15287790;19;20018;-75
2022/08/01 11:06:55;;;;;;;0.20;0.10;;;;;;;23.39;100.00;98341.59;15287370;19;20030;-76
2022/08/01 11:12:08;;;;;;;0.50;0.15;;;;;;;23.63;100.00;98341.47;15284792;19;20023;-76
2022/08/01 11:17:33;;;;;;;2.40;0.20;;;;;;;23.94;100.00;98344.72;15287369;19;20042;-76
2022/08/01 11:23:18;;;;;;;0.85;0.10;;;;;;;23.72;100.00;98341.06;15287025;19;20010;-76
2022/08/01 11:28:31;;;;;;;0.10;0.10;;;;;;;23.72;100.00;98336.41;15269799;19;20015;-76
2022/08/01 11:33:52;;;;;;;0.15;0.00;;;;;;;23.66;100.00;98348.38;15286218;19;20002;-78
2022/08/01 11:39:14;;;;;;;0.40;0.03;;;;;;;23.70;100.00;98339.38;15282210;19;20003;-74
2022/08/01 11:44:33;;;;;;;;;;;;;;;23.87;100.00;98338.56;15289497;19;20011;-74
2022/08/01 11:49:54;;;;;;;0.00;0.00;;;;;;;23.97;100.00;98338.75;15280827;19;19933;-75
2022/08/01 11:55:07;;;;;;;0.00;0.00;;;;;;;24.26;100.00;98324.88;15282910;19;20027;-74
2022/08/01 12:00:19;;;;;;;0.17;0.10;;;;;;;24.33;100.00;98332.13;15270830;19;20018;-74
2022/08/01 12:05:25;;;;;;;0.20;0.10;;;;;;;24.42;100.00;98338.84;15286691;19;20476;-75
2022/08/01 12:10:36;;;;;;;0.20;0.10;;;;;;;24.50;100.00;98334.81;15279956;19;20007;-75
2022/08/01 12:15:58;;;;;;;0.30;0.10;;;;;;;24.71;100.00;98344.22;15285214;19;20018;-75
2022/08/01 12:21:06;;;;;;;0.80;0.20;;;;;;;24.81;100.00;98336.09;15279506;19;20421;-75
2022/08/01 12:26:11;;;;;;;1.45;0.10;;;;;;;24.87;100.00;98345.25;15284810;19;20019;-75
2022/08/01 12:31:38;;;;;;;0.03;0.00;;;;;;;24.84;100.00;98340.25;15278234;19;20024;-76
2022/08/01 12:36:44;;;;;;;0.55;0.10;;;;;;;24.85;100.00;98330.91;15278276;19;20023;-76
2022/08/01 12:41:49;;;;;;;1.77;0.15;;;;;;;24.91;100.00;98338.97;15282938;19;20007;-75
2022/08/01 12:46:56;;;;;;;0.68;0.05;;;;;;;24.79;100.00;98343.78;15283253;19;20082;-74
2022/08/01 12:52:03;;;;;;;0.20;0.10;;;;;;;25.04;100.00;98339.66;15276975;19;20023;-74
2022/08/01 12:57:23;;;;;;;0.03;0.00;;;;;;;25.23;100.00;98332.69;15281271;19;20420;-74
2022/08/01 13:02:37;;;;;;;0.52;0.20;;;;;;;25.43;100.00;98331.28;15277167;19;20014;-75
2022/08/01 13:07:48;;;;;;;0.10;0.10;;;;;;;25.53;100.00;98336.91;15276447;19;20006;-75
2022/08/01 13:12:55;;;;;;;0.68;0.20;;;;;;;25.64;100.00;98328.72;15279887;19;20791;-77
2022/08/01 13:18:24;;;;;;;2.35;0.10;;;;;;;25.83;100.00;98310.66;15284706;19;20014;-76
2022/08/01 13:23:28;;;;;;;0.30;0.00;;;;;;;26.02;88.81;98320.44;15285065;19;20030;-75
2022/08/01 13:29:07;;;;;;;1.40;0.20;;;;;;;26.24;86.87;98309.31;15287526;19;20014;-75
2022/08/01 13:34:15;;;;;;;0.20;0.10;;;;;;;26.59;90.98;98302.31;15291727;19;20031;-76
2022/08/01 13:44:38;;;;;;;0.10;0.10;;;;;;;26.84;83.57;98290.53;15297387;19;20011;-75
2022/08/01 13:49:46;;;;;;;0.32;0.00;;;;;;;27.02;79.53;98294.75;15290411;19;20394;-75
2022/08/01 13:54:51;;;;;;;1.33;0.10;;;;;;;27.06;70.08;98306.94;15290105;19;20015;-74
2022/08/01 13:59:59;;;;;;;0.20;0.10;;;;;;;26.80;72.61;98313.47;15289722;19;20011;-76
2022/08/01 14:05:08;;;;;;;0.47;0.00;;;;;;;26.31;73.03;98312.66;15295342;19;20022;-77
2022/08/01 14:10:13;;;;;;;0.10;0.10;;;;;;;26.38;78.44;98310.50;15284273;19;20015;-76
2022/08/01 14:15:26;;;;;;;;;;;;;;;26.72;74.00;98314.78;15294304;19;20082;-75
2022/08/01 14:20:45;;;;;;;0.10;0.10;;;;;;;26.99;74.69;98300.81;15292577;19;19914;-75
2022/08/01 14:25:52;;;;;;;;;;;;;;;27.10;68.86;98315.50;15299971;19;20019;-76
2022/08/01 14:31:10;;;;;;;0.10;0.00;;;;;;;27.45;71.22;98310.34;15298013;19;20340;-77
2022/08/01 14:36:18;;;;;;;0.25;0.10;;;;;;;27.48;62.63;98302.34;15339574;19;20006;-76
2022/08/01 14:41:34;;;;;;;0.10;0.00;;;;;;;27.75;63.34;98303.16;15337661;19;20010;-76
2022/08/01 14:46:41;;;;;;;0.15;0.10;;;;;;;27.99;59.58;98295.94;15294178;19;20018;-76
2022/08/01 14:52:06;;;;;;;0.10;0.10;;;;;;;28.14;62.41;98313.69;15287401;19;20019;-76
2022/08/01 14:57:12;;;;;;;4.15;0.22;;;;;;;27.61;79.57;98314.78;15291949;19;20013;-76
2022/08/01 15:02:18;;;;;;;3.00;0.20;;;;;;;27.11;83.28;98322.69;15290205;19;20335;-76
2022/08/01 15:07:26;;;;;;;0.32;0.10;;;;;;;26.85;86.71;98322.63;15291127;19;20034;-75
2022/08/01 15:12:32;;;;;;;0.10;0.05;;;;;;;26.72;92.37;98326.69;15287594;19;20014;-76
2022/08/01 15:17:54;;;;;;;0.20;0.10;;;;;;;26.73;98.96;98331.13;15285507;19;20122;-77
2022/08/01 15:23:06;;;;;;;0.17;0.10;;;;;;;26.12;100.00;98331.59;15291386;19;20027;-76
2022/08/01 15:28:13;;;;;;;0.00;0.00;;;;;;;26.67;97.41;98331.38;15291289;19;20022;-76
2022/08/01 15:33:18;;;;;;;0.08;0.08;;;;;;;26.71;93.55;98332.47;15289650;19;20494;-76
2022/08/01 15:38:26;;;;;;;2.40;0.10;;;;;;;27.23;94.66;98339.03;15324040;19;20010;-77
2022/08/01 15:43:31;;;;;;;0.00;0.00;;;;;;;27.04;90.34;98325.72;15316335;19;20014;-75
2022/08/01 15:48:36;;;;;;;2.30;0.10;;;;;;;26.87;99.44;98336.19;15277052;19;20022;-74
2022/08/01 15:53:48;;;;;;;0.95;0.10;;;;;;;27.15;96.61;98334.03;15285119;19;20017;-75
2022/08/01 15:58:54;;;;;;;1.10;0.10;;;;;;;27.25;98.86;98334.06;15280629;19;20022;-74
2022/08/01 16:04:00;;;;;;;1.55;0.10;;;;;;;26.60;96.10;98337.13;15283414;19;20480;-75
2022/08/01 16:09:08;;;;;;;0.50;0.08;;;;;;;26.12;100.00;98343.47;15282554;19;20030;-75
2022/08/01 16:14:23;;;;;;;0.57;0.10;;;;;;;26.44;100.00;98338.97;15278378;19;20077;-75
2022/08/01 16:19:28;;;;;;;1.17;0.10;;;;;;;26.72;100.00;98340.50;15272367;19;20018;-76
2022/08/01 16:24:36;;;;;;;1.30;0.20;;;;;;;26.03;100.00;98347.81;15283375;19;20018;-76
2022/08/01 16:29:41;;;;;;;1.80;0.20;;;;;;;25.68;100.00;98338.97;15280412;19;20018;-75
2022/08/01 16:34:46;;;;;;;0.10;0.10;;;;;;;25.66;100.00;98345.84;15282519;19;20492;-74
2022/08/01 16:39:53;;;;;;;0.32;0.10;;;;;;;25.72;100.00;98350.28;15281499;19;20007;-75
2022/08/01 16:45:01;;;;;;;0.85;0.22;;;;;;;25.77;100.00;98347.59;15285860;19;20408;-76
2022/08/01 16:50:16;;;;;;;3.60;0.25;;;;;;;25.80;100.00;98347.06;15239838;19;22123;-75
2022/08/01 16:55:35;;;;;;;2.03;0.10;;;;;;;25.82;100.00;98355.91;15281955;19;20018;-76
2022/08/01 17:00:54;;;;;;;1.38;0.10;;;;;;;25.88;100.00;98337.44;15273997;19;20419;-74
2022/08/01 17:06:00;;;;;;;0.55;0.10;;;;;;;25.88;100.00;98347.69;15298081;19;20015;-74
2022/08/01 17:11:08;;;;;;;0.45;0.10;;;;;;;25.83;100.00;98346.53;15288965;19;20487;-74
2022/08/01 17:16:13;;;;;;;0.32;0.10;;;;;;;25.92;100.00;98346.06;15291953;19;20073;-74
2022/08/01 17:21:18;;;;;;;2.28;0.25;;;;;;;25.96;100.00;98349.94;15288813;19;20507;-74
2022/08/01 17:26:25;;;;;;;2.20;0.20;;;;;;;26.01;100.00;98361.03;15290357;19;20078;-73
2022/08/01 17:31:30;;;;;;;0.75;0.22;;;;;;;26.08;100.00;98358.88;15294385;19;20018;-72
2022/08/01 17:36:35;;;;;;;2.08;0.10;;;;;;;25.79;100.00;98356.44;14780600;19;10000927;-73
2022/08/01 17:41:43;;;;;;;0.82;0.15;;;;;;;25.92;100.00;98363.44;15293445;19;20035;-75
2022/08/01 17:46:48;;;;;;;1.40;0.20;;;;;;;26.04;100.00;98360.50;15298828;19;20022;-76
2022/08/01 17:51:53;;;;;;;0.20;0.20;;;;;;;26.01;100.00;98369.31;15287191;19;20300;-75
2022/08/01 17:57:01;;;;;;;0.40;0.10;;;;;;;25.92;100.00;98370.91;15291890;19;20032;-76
2022/08/01 18:02:11;;;;;;;2.28;0.30;;;;;;;25.67;100.00;98373.16;15295241;19;20348;-76
2022/08/01 18:07:16;;;;;;;0.50;0.20;;;;;;;25.48;100.00;98383.72;15295741;19;20018;-75
2022/08/01 18:12:24;;;;;;;2.13;0.30;;;;;;;25.20;100.00;98377.34;15294168;19;20022;-76
2022/08/01 18:17:29;;;;;;;0.77;0.25;;;;;;;24.93;100.00;98383.63;15294653;19;20015;-77
2022/08/01 18:22:34;;;;;;;1.05;0.20;;;;;;;24.70;100.00;98384.69;15293874;19;20015;-75
2022/08/01 18:27:42;;;;;;;0.20;0.20;;;;;;;24.43;100.00;98381.81;15283223;19;20062;-75
2022/08/01 18:33:07;;;;;;;2.50;0.20;;;;;;;24.26;100.00;98392.84;15290661;19;20082;-74
2022/08/01 18:38:12;;;;;;;3.72;0.30;;;;;;;23.99;100.00;98390.81;15290225;19;20515;-75
2022/08/01 18:43:20;;;;;;;1.63;0.25;;;;;;;23.86;100.00;98408.44;15296291;19;20023;-75
2022/08/01 18:48:25;;;;;;;2.17;0.20;;;;;;;23.59;100.00;98408.22;15309044;19;20035;-74
2022/08/01 18:53:38;;;;;;;1.02;0.25;;;;;;;23.49;100.00;98411.59;15357591;19;20029;-74
2022/08/01 18:58:48;;;;;;;0.52;0.30;;;;;;;23.22;100.00;98426.78;15323793;19;20507;-75
2022/08/01 19:03:53;;;;;;;0.95;0.30;;;;;;;22.95;100.00;98442.94;15298064;19;20018;-76
2022/08/01 19:08:59;;;;;;;0.60;0.28;;;;;;;22.71;100.00;98447.63;15301695;19;20006;-76
2022/08/01 19:14:15;;;;;;;0.80;0.30;;;;;;;22.55;100.00;98454.66;15305487;19;20018;-77
2022/08/01 19:19:24;;;;;;;0.95;0.30;;;;;;;22.38;100.00;98468.25;15305435;19;20038;-76
2022/08/01 19:24:32;;;;;;;2.33;0.38;;;;;;;22.15;100.00;98469.88;15292459;19;20018;-76
2022/08/01 19:29:41;;;;;;;2.08;0.32;;;;;;;22.03;100.00;98478.09;15283988;19;20030;-76
2022/08/01 19:34:52;;;;;;;2.15;0.50;;;;;;;21.92;100.00;98476.16;15295655;19;20042;-76
2022/08/01 19:40:03;;;;;;;1.73;0.60;;;;;;;21.77;100.00;98488.38;15305474;19;20018;-76
2022/08/01 19:45:12;;;;;;;0.85;0.50;;;;;;;21.65;100.00;98484.75;15307203;19;20018;-77
2022/08/01 19:50:18;;;;;;;5.55;0.55;;;;;;;21.46;100.00;98498.44;15297289;19;20018;-76
2022/08/01 19:55:36;;;;;;;3.67;0.68;;;;;;;21.31;100.00;98492.56;15302154;19;20365;-76
2022/08/01 20:00:48;;;;;;;2.10;0.50;;;;;;;21.03;100.00;98505.72;15294687;19;20021;-75
2022/08/01 20:05:53;;;;;;;3.35;0.60;;;;;;;20.89;100.00;98505.00;15289170;19;20019;-75
2022/08/01 20:11:00;;;;;;;1.90;0.60;;;;;;;20.77;100.00;98517.78;15282737;19;20504;-75
2022/08/01 20:16:24;;;;;;;1.33;0.60;;;;;;;20.71;100.00;98515.91;15276260;19;20014;-75
2022/08/01 20:21:38;;;;;;;1.50;0.73;;;;;;;20.64;100.00;98518.72;15284269;19;20011;-76
2022/08/01 20:26:43;;;;;;;2.00;0.60;;;;;;;20.59;100.00;98530.34;15287143;19;20018;-76
2022/08/01 20:31:56;;;;;;;1.95;0.43;;;;;;;20.53;100.00;98523.00;15296005;19;20018;-76
2022/08/01 20:37:00;;;;;;;1.27;0.63;;;;;;;20.47;100.00;98530.22;15290758;19;20037;-75
2022/08/01 20:42:11;;;;;;;1.65;0.60;;;;;;;20.41;100.00;98531.13;15318236;19;20413;-76
2022/08/01 20:47:20;;;;;;;1.52;0.50;;;;;;;20.37;100.00;98540.00;15303864;19;20038;-76
2022/08/01 20:52:26;;;;;;;0.95;0.50;;;;;;;20.32;100.00;98538.75;15296294;19;20073;-77
2022/08/01 20:57:34;;;;;;;1.30;0.50;;;;;;;20.26;100.00;98552.47;15296578;19;20018;-76
2022/08/01 21:02:50;;;;;;;2.53;0.50;;;;;;;20.19;100.00;98555.25;15301656;19;20019;-76
2022/08/01 21:08:04;;;;;;;3.80;0.60;;;;;;;20.11;100.00;98566.47;15292303;19;20018;-76
2022/08/01 21:13:13;;;;;;;0.50;0.50;;;;;;;20.00;100.00;98560.66;15301161;19;20018;-76
2022/08/01 21:18:34;;;;;;;1.80;0.50;;;;;;;19.94;100.00;98560.69;15298862;19;20031;-76
2022/08/01 21:23:49;;;;;;;1.25;0.50;;;;;;;19.86;100.00;98565.34;15298746;19;20393;-76
2022/08/01 21:28:55;;;;;;;0.82;0.60;;;;;;;19.77;100.00;98557.59;15296986;19;20013;-76
2022/08/01 21:34:08;;;;;;;1.17;0.50;;;;;;;19.64;100.00;98558.50;15298635;19;20012;-76
2022/08/01 21:39:14;;;;;;;3.08;0.70;;;;;;;19.56;100.00;98565.03;15268981;19;20415;-76
2022/08/01 21:44:20;;;;;;;0.65;0.50;;;;;;;19.49;100.00;98565.06;15330747;19;20010;-76
2022/08/01 21:49:35;;;;;;;1.02;0.70;;;;;;;19.34;100.00;98569.94;15305851;19;20082;-76
2022/08/01 21:54:48;;;;;;;1.33;0.57;;;;;;;19.23;100.00;98575.00;15272883;19;20073;-77
2022/08/01 22:00:05;;;;;;;3.20;0.70;;;;;;;19.16;100.00;98579.66;15293749;19;20031;-77
2022/08/01 22:05:15;;;;;;;0.45;0.45;;;;;;;19.07;100.00;98581.78;15307287;19;20029;-77
2022/08/01 22:10:22;;;;;;;1.02;0.50;;;;;;;19.00;100.00;98582.81;15289996;19;20476;-76
2022/08/01 22:15:29;;;;;;;1.80;0.50;;;;;;;18.98;100.00;98588.50;15295913;19;20019;-77
2022/08/01 22:20:52;;;;;;;1.08;0.60;;;;;;;18.91;100.00;98593.94;15298608;19;20740;-78
2022/08/01 22:25:58;;;;;;;0.57;0.50;;;;;;;18.90;100.00;98596.88;15303380;19;20065;-77
2022/08/01 22:31:05;;;;;;;3.53;0.70;;;;;;;18.86;100.00;98601.09;15294599;19;20372;-79
2022/08/01 22:36:15;;;;;;;0.70;0.57;;;;;;;18.81;100.00;98603.59;15300951;19;20038;-79
2022/08/01 22:41:22;;;;;;;1.40;0.60;;;;;;;18.76;100.00;98606.97;15306939;19;20003;-78
2022/08/01 22:46:34;;;;;;;1.42;0.65;;;;;;;18.71;100.00;98610.31;15297086;19;20479;-78
2022/08/01 22:51:48;;;;;;;1.38;0.60;;;;;;;18.68;100.00;98610.72;15296535;19;20042;-77
2022/08/01 22:57:05;;;;;;;1.65;0.50;;;;;;;18.61;100.00;98608.00;15325466;19;20014;-78
2022/08/01 23:02:15;;;;;;;1.25;0.68;;;;;;;18.54;100.00;98619.94;15355523;19;20470;-77
2022/08/01 23:07:29;;;;;;;1.13;0.80;;;;;;;18.51;100.00;98625.84;15293493;19;20014;-77
2022/08/01 23:12:35;;;;;;;0.70;0.60;;;;;;;18.47;100.00;98623.53;15298202;19;20020;-78
2022/08/01 23:17:44;;;;;;;0.98;0.60;;;;;;;18.48;100.00;98632.53;15280271;19;20492;-77
2022/08/01 23:22:52;;;;;;;2.35;0.73;;;;;;;18.45;100.00;98617.44;15294178;19;20022;-78
2022/08/01 23:28:00;;;;;;;1.65;0.80;;;;;;;18.40;100.00;98619.97;15293302;19;20002;-78
2022/08/01 23:33:10;;;;;;;2.75;0.70;;;;;;;18.37;100.00;98604.00;15293617;19;20014;-77
2022/08/01 23:38:21;;;;;;;0.68;0.50;;;;;;;18.32;100.00;98604.63;15289924;19;20050;-78
2022/08/01 23:43:26;;;;;;;0.68;0.50;;;;;;;18.27;100.00;98603.56;15295502;19;20018;-76
2022/08/01 23:48:32;;;;;;;0.77;0.60;;;;;;;18.23;100.00;98608.56;15287010;19;20474;-78
2022/08/01 23:53:39;;;;;;;2.30;0.77;;;;;;;18.20;100.00;98595.38;15286069;19;20633;-77